Time;durP1;ratioP1;P1;durP2;ratioP2;P2;SDS_P1;SDS_P2;PMS_P1;PMS_P2;Temp;Humidity;BMP_temperature;BMP_pressure;BME280_temperature;BME280_humidity;BME280_pressure;Samples;Min_cycle;Max_cycle;Signal;HPM_P1;HPM_P2
2022/06/04 00:02:19;;;;;;;36.05;26.27;;;;;;;19.18;68.31;99073.22;5221263;28;20132;-71
2022/06/04 00:05:12;;;;;;;31.90;23.38;;;;;;;19.02;68.22;99073.53;5221489;28;20170;-71
2022/06/04 00:08:06;;;;;;;33.83;27.70;;;;;;;19.07;68.44;99059.47;5222875;28;20041;-71
2022/06/04 00:17:14;;;;;;;39.15;30.95;;;;;;;19.13;69.03;99056.00;5222046;28;20067;-71
2022/06/04 00:20:05;;;;;;;43.25;32.67;;;;;;;19.06;69.41;99055.97;5222522;28;20048;-71
2022/06/04 00:23:01;;;;;;;41.00;31.75;;;;;;;19.01;68.51;99063.81;5222311;28;20056;-71
2022/06/04 00:25:54;;;;;;;35.60;30.10;;;;;;;18.94;68.60;99063.75;5219370;28;20135;-71
2022/06/04 00:28:48;;;;;;;33.90;28.90;;;;;;;18.84;68.90;99070.47;5221940;28;20142;-71
2022/06/04 00:31:38;;;;;;;33.33;28.60;;;;;;;18.85;68.07;99073.00;5222209;28;20462;-71
2022/06/04 00:34:28;;;;;;;35.17;27.50;;;;;;;18.66;68.35;99082.50;5207720;28;20557;-71
2022/06/04 00:37:18;;;;;;;39.08;29.13;;;;;;;18.80;68.79;99078.09;5222417;28;20052;-71
2022/06/04 00:40:14;;;;;;;36.97;29.25;;;;;;;18.68;68.75;99072.41;5221977;28;20068;-70
2022/06/04 00:43:04;;;;;;;38.90;30.08;;;;;;;18.75;69.00;99080.56;5221631;28;20236;-70
2022/06/04 00:46:36;;;;;;;35.17;29.17;;;;;;;18.70;68.74;99072.19;5209056;28;20060;-71
2022/06/04 00:49:26;;;;;;;37.75;30.13;;;;;;;18.53;68.80;99067.09;5201259;28;20045;-71
2022/06/04 00:52:24;;;;;;;33.88;27.63;;;;;;;18.41;68.40;99057.06;5222011;28;20052;-71
2022/06/04 00:55:16;;;;;;;33.60;27.67;;;;;;;18.41;67.67;99051.72;5219505;28;20045;-71
2022/06/04 00:58:19;;;;;;;31.27;26.92;;;;;;;18.37;68.22;99053.13;5222116;28;20053;-71
2022/06/04 01:01:27;;;;;;;30.75;25.90;;;;;;;18.35;67.86;99064.06;5221666;28;20140;-71
2022/06/04 01:04:48;;;;;;;36.03;26.88;;;;;;;18.38;67.50;99063.69;5206075;28;20083;-71
2022/06/04 01:07:49;;;;;;;32.97;27.05;;;;;;;18.32;67.94;99072.50;5210130;28;20613;-71
2022/06/04 01:10:39;;;;;;;35.78;29.08;;;;;;;18.22;68.72;99069.31;5221957;28;20530;-71
2022/06/04 01:13:56;;;;;;;33.10;27.25;;;;;;;18.06;68.32;99084.63;5224843;28;20060;-71
2022/06/04 01:16:59;;;;;;;38.60;28.45;;;;;;;18.01;67.53;99078.16;5225510;28;20060;-71
2022/06/04 01:20:03;;;;;;;33.30;27.25;;;;;;;18.16;68.71;99062.84;5225666;28;20060;-71
2022/06/04 01:23:19;;;;;;;30.17;25.15;;;;;;;18.12;67.82;99069.63;5225760;28;20499;-71
2022/06/04 01:26:39;;;;;;;29.92;25.23;;;;;;;18.24;68.05;99062.69;5211037;28;20562;-71
2022/06/04 01:29:48;;;;;;;33.22;28.40;;;;;;;18.18;68.31;99073.38;5212341;28;20117;-71
2022/06/04 01:32:43;;;;;;;43.25;28.33;;;;;;;18.00;68.14;99076.50;5209854;28;20144;-71
2022/06/04 01:35:44;;;;;;;30.40;24.92;;;;;;;17.72;67.88;99057.59;5212273;28;20037;-71
2022/06/04 01:38:42;;;;;;;36.17;26.58;;;;;;;17.73;68.31;99078.00;5225795;28;20191;-71
2022/06/04 01:41:38;;;;;;;38.22;27.77;;;;;;;17.76;68.56;99062.41;5212385;28;20443;-70
2022/06/04 01:44:32;;;;;;;35.58;26.63;;;;;;;17.76;68.22;99074.97;5215631;28;20050;-70
2022/06/04 01:47:23;;;;;;;33.22;25.10;;;;;;;17.67;68.55;99063.50;5207342;28;20616;-72
2022/06/04 01:50:19;;;;;;;35.55;26.92;;;;;;;17.92;69.32;99063.22;5209939;28;20115;-70
2022/06/04 01:53:12;;;;;;;38.97;30.13;;;;;;;17.87;69.90;99060.25;5224407;28;20103;-70
2022/06/04 01:56:16;;;;;;;34.85;29.60;;;;;;;17.78;69.88;99057.69;5224521;28;20051;-70
2022/06/04 01:59:17;;;;;;;35.70;29.03;;;;;;;17.93;69.07;99063.00;5223316;28;20057;-70
2022/06/04 02:02:15;;;;;;;38.92;27.95;;;;;;;17.52;69.17;99068.88;5224515;28;20053;-70
2022/06/04 02:05:10;;;;;;;31.92;25.05;;;;;;;17.42;68.56;99063.00;5224270;28;20059;-70
2022/06/04 02:08:02;;;;;;;;;;;;;;;17.45;67.97;99070.66;5210032;28;20189;-70
2022/06/04 02:11:05;;;;;;;43.42;28.13;;;;;;;17.61;68.62;99080.31;5224009;28;20074;-70
2022/06/04 02:13:58;;;;;;;35.38;26.75;;;;;;;17.44;68.04;99073.50;5213861;28;20064;-71
2022/06/04 02:16:53;;;;;;;30.92;25.90;;;;;;;17.42;68.27;99072.84;5209307;28;20080;-70
2022/06/04 02:19:45;;;;;;;31.45;25.55;;;;;;;17.34;68.82;99063.91;5224459;28;20103;-70
2022/06/04 02:22:35;;;;;;;40.38;30.83;;;;;;;17.60;71.04;99067.94;5224152;28;20079;-71
2022/06/04 02:25:29;;;;;;;42.72;34.60;;;;;;;17.95;71.62;99068.19;5219499;28;20507;-71
2022/06/04 02:28:20;;;;;;;35.70;30.50;;;;;;;17.81;71.03;99075.22;5224306;28;20573;-70
2022/06/04 02:31:22;;;;;;;36.80;28.92;;;;;;;17.61;71.23;99062.41;5222827;28;20056;-70
2022/06/04 02:34:18;;;;;;;38.30;28.75;;;;;;;17.81;70.33;99061.81;5208544;28;20049;-70
2022/06/04 02:37:25;;;;;;;36.50;29.30;;;;;;;17.56;70.13;99067.50;5223822;28;20142;-70
2022/06/04 02:40:45;;;;;;;32.65;26.45;;;;;;;17.48;69.95;99072.09;5223189;28;20076;-70
2022/06/04 02:43:55;;;;;;;36.35;28.02;;;;;;;17.35;69.53;99078.97;5209970;28;20414;-71
2022/06/04 02:46:56;;;;;;;29.83;24.15;;;;;;;17.23;68.72;99082.31;5222420;28;20525;-71
2022/06/04 02:50:13;;;;;;;34.50;24.65;;;;;;;17.12;69.81;99051.44;5215155;28;20418;-70
2022/06/04 02:53:05;;;;;;;38.88;30.55;;;;;;;17.33;72.00;99058.72;5223846;28;20059;-70
2022/06/04 02:56:01;;;;;;;32.95;26.42;;;;;;;17.42;71.55;99071.03;5223403;28;20182;-70
2022/06/04 02:58:56;;;;;;;34.75;28.20;;;;;;;17.55;69.80;99070.38;5223324;28;20413;-70
2022/06/04 03:01:50;;;;;;;32.95;26.92;;;;;;;17.28;70.62;99061.13;5223319;28;20415;-70
2022/06/04 03:04:49;;;;;;;34.17;26.23;;;;;;;17.18;68.93;99060.56;5223161;28;20045;-70
2022/06/04 03:07:42;;;;;;;33.70;25.65;;;;;;;17.18;69.62;99066.75;5209508;28;20052;-70
2022/06/04 03:10:35;;;;;;;28.67;24.05;;;;;;;17.02;70.22;99056.22;5223299;28;20064;-70
2022/06/04 03:13:25;;;;;;;30.92;25.45;;;;;;;17.17;69.48;99054.38;5207988;28;20055;-70
2022/06/04 03:16:16;;;;;;;30.42;23.80;;;;;;;17.13;69.24;99045.88;5223480;28;20118;-70
2022/06/04 03:19:07;;;;;;;29.20;24.75;;;;;;;17.27;69.38;99065.66;5207502;28;20163;-70
2022/06/04 03:21:59;;;;;;;30.25;25.60;;;;;;;17.05;69.02;99053.16;5223031;28;20060;-70
2022/06/04 03:24:50;;;;;;;29.90;24.27;;;;;;;17.05;69.36;99056.72;5207989;28;20060;-70
2022/06/04 03:27:40;;;;;;;32.67;24.05;;;;;;;17.02;69.07;99057.06;5193880;28;20065;-70
2022/06/04 03:30:40;;;;;;;30.52;23.23;;;;;;;16.13;68.56;98932.94;5208436;28;20198;-72
2022/06/04 03:33:30;;;;;;;32.17;24.17;;;;;;;16.93;69.44;99057.34;5199559;28;20085;-73
2022/06/04 03:36:21;;;;;;;30.65;24.50;;;;;;;16.96;69.00;99039.06;5187855;28;20440;-71
2022/06/04 03:39:12;;;;;;;33.75;26.30;;;;;;;17.19;69.72;99057.72;5202462;28;20116;-73
2022/06/04 03:42:02;;;;;;;33.13;25.45;;;;;;;17.11;70.12;99049.75;5214253;28;20163;-73
2022/06/04 03:44:52;;;;;;;31.27;25.52;;;;;;;17.16;69.11;99058.09;5207066;28;20186;-72
2022/06/04 03:47:42;;;;;;;30.52;24.52;;;;;;;17.05;70.13;99059.38;5220397;28;20063;-74
2022/06/04 03:50:32;;;;;;;33.97;24.83;;;;;;;17.04;69.82;99060.38;5222693;28;20048;-73
2022/06/04 03:53:23;;;;;;;29.60;23.85;;;;;;;17.21;69.54;99082.47;5207882;28;20085;-74
2022/06/04 03:56:13;;;;;;;33.75;24.55;;;;;;;17.34;69.69;99088.00;5222459;28;20075;-71
2022/06/04 03:59:03;;;;;;;30.38;23.48;;;;;;;17.32;69.21;99084.72;5222600;28;20044;-73
2022/06/04 04:01:54;;;;;;;34.40;25.05;;;;;;;17.32;70.87;99082.03;5220924;28;20048;-74
2022/06/04 04:04:44;;;;;;;36.25;28.48;;;;;;;17.46;70.97;99084.88;5221751;28;20122;-74
2022/06/04 04:07:34;;;;;;;33.38;25.77;;;;;;;17.57;70.52;99095.13;5207147;28;20111;-74
2022/06/04 04:10:26;;;;;;;33.63;27.75;;;;;;;17.83;72.12;99097.34;5221000;28;20055;-74
2022/06/04 04:13:17;;;;;;;40.00;30.13;;;;;;;18.16;71.13;99097.72;5207233;28;20060;-73
2022/06/04 04:16:10;;;;;;;35.95;27.38;;;;;;;18.52;70.36;99097.69;5200492;28;20060;-73
2022/06/04 04:19:00;;;;;;;34.83;25.38;;;;;;;18.29;70.95;99100.53;5221127;28;20064;-73
2022/06/04 04:21:51;;;;;;;32.92;24.88;;;;;;;18.37;71.00;99091.53;5206340;28;20052;-73
2022/06/04 04:24:41;;;;;;;32.30;24.35;;;;;;;18.41;71.32;99082.09;5221622;28;20049;-74
2022/06/04 04:27:31;;;;;;;26.15;22.58;;;;;;;18.33;71.44;99078.69;5222702;28;20049;-74
2022/06/04 04:30:24;;;;;;;24.67;21.10;;;;;;;18.59;70.50;99075.44;5221926;28;20055;-74
2022/06/04 04:33:15;;;;;;;28.80;21.35;;;;;;;18.65;70.52;99078.16;5222339;28;20138;-74
2022/06/04 04:36:07;;;;;;;23.45;19.67;;;;;;;18.70;70.83;99081.09;5218185;28;20052;-74
2022/06/04 04:38:57;;;;;;;25.10;18.00;;;;;;;18.73;70.39;99069.16;5222393;28;20061;-73
2022/06/04 04:41:47;;;;;;;26.42;19.42;;;;;;;18.69;69.86;99057.94;5221485;28;20079;-74
2022/06/04 04:44:37;;;;;;;24.02;21.42;;;;;;;18.71;70.04;99058.59;5221508;28;20427;-74
2022/06/04 04:47:27;;;;;;;28.48;21.95;;;;;;;18.80;69.62;99061.16;5222144;28;20140;-74
2022/06/04 04:50:20;;;;;;;26.48;19.92;;;;;;;18.78;69.56;99069.44;5225232;28;20134;-74
2022/06/04 04:53:11;;;;;;;27.80;19.38;;;;;;;18.68;70.00;99063.53;5212669;28;20060;-74
2022/06/04 04:56:01;;;;;;;28.80;19.23;;;;;;;18.73;69.88;99040.44;5225745;28;20060;-74
2022/06/04 04:58:51;;;;;;;26.23;19.00;;;;;;;19.12;69.46;99060.56;5210840;28;20514;-74
2022/06/04 05:01:41;;;;;;;24.48;19.08;;;;;;;19.51;68.04;99067.19;5209796;28;20063;-74
2022/06/04 05:04:32;;;;;;;28.45;18.40;;;;;;;19.23;69.07;99073.44;5223950;28;20067;-74
2022/06/04 05:07:22;;;;;;;21.50;17.33;;;;;;;19.43;69.34;99088.84;5225348;28;20153;-74
2022/06/04 05:10:13;;;;;;;20.55;18.35;;;;;;;19.58;68.44;99092.25;5210953;28;20060;-74
2022/06/04 05:13:04;;;;;;;24.35;17.75;;;;;;;19.71;68.34;99081.59;5212276;28;20585;-74
2022/06/04 05:15:53;;;;;;;22.38;17.88;;;;;;;19.88;68.22;99094.69;5225057;28;20055;-74
2022/06/04 05:18:44;;;;;;;23.33;16.60;;;;;;;19.90;67.34;99095.31;5225340;28;20483;-74
2022/06/04 05:21:40;;;;;;;18.85;16.23;;;;;;;20.10;67.73;99103.47;5225608;28;20056;-74
2022/06/04 05:24:33;;;;;;;21.33;15.85;;;;;;;20.31;67.40;99113.25;5209275;28;20143;-74
2022/06/04 05:27:23;;;;;;;19.05;16.30;;;;;;;20.36;67.80;99122.38;5225794;28;20049;-74
2022/06/04 05:30:14;;;;;;;23.83;15.27;;;;;;;20.51;66.68;99126.78;5225202;28;20180;-75
2022/06/04 05:33:04;;;;;;;24.33;15.18;;;;;;;20.49;66.59;99128.81;5220115;28;20052;-74
2022/06/04 05:35:55;;;;;;;23.23;15.27;;;;;;;20.44;66.63;99120.53;5226981;28;20479;-74
2022/06/04 05:38:46;;;;;;;18.23;14.10;;;;;;;20.48;66.25;99127.16;5225512;28;20049;-75
2022/06/04 05:41:37;;;;;;;15.80;13.43;;;;;;;20.31;67.55;99119.47;5224543;28;20194;-74
2022/06/04 05:44:28;;;;;;;17.42;12.85;;;;;;;20.60;66.03;99118.31;5220451;28;20060;-75
2022/06/04 05:47:18;;;;;;;21.50;16.52;;;;;;;20.78;65.33;99133.03;5217062;28;20582;-74
2022/06/04 05:50:08;;;;;;;14.50;11.65;;;;;;;20.78;65.05;99116.88;5209975;28;20072;-75
2022/06/04 05:52:58;;;;;;;14.13;11.70;;;;;;;20.79;64.63;99129.28;5223659;28;20048;-74
2022/06/04 05:55:50;;;;;;;14.20;11.55;;;;;;;20.84;65.72;99148.38;5214030;28;20052;-74
2022/06/04 05:58:42;;;;;;;15.43;11.88;;;;;;;21.05;64.43;99128.47;5217263;28;20106;-74
2022/06/04 06:01:33;;;;;;;16.10;12.90;;;;;;;20.95;65.19;99141.53;5220124;28;20055;-75
2022/06/04 06:04:26;;;;;;;16.88;13.52;;;;;;;20.89;65.60;99137.78;5218073;28;20080;-75
2022/06/04 06:07:16;;;;;;;17.40;13.23;;;;;;;21.00;65.65;99145.28;5216731;28;20524;-75
2022/06/04 06:10:06;;;;;;;16.70;13.80;;;;;;;21.08;65.46;99150.44;5220719;28;20057;-74
2022/06/04 06:12:56;;;;;;;20.48;14.05;;;;;;;20.60;66.89;99171.38;5217925;28;20060;-74
2022/06/04 06:15:47;;;;;;;16.75;12.90;;;;;;;20.67;65.84;99176.75;5218325;28;20124;-74
2022/06/04 06:18:37;;;;;;;20.88;12.50;;;;;;;20.79;65.70;99202.88;5204033;28;20519;-75
2022/06/04 06:21:31;;;;;;;17.50;12.60;;;;;;;20.71;66.99;99229.19;5217433;28;20135;-75
2022/06/04 06:24:22;;;;;;;18.83;12.43;;;;;;;20.78;66.32;99248.91;5222906;28;20510;-75
2022/06/04 06:27:13;;;;;;;20.23;12.90;;;;;;;20.74;66.36;99261.13;5223685;28;20507;-76
2022/06/04 06:30:03;;;;;;;26.70;13.27;;;;;;;20.87;66.80;99286.25;5221467;28;20064;-75
2022/06/04 06:32:54;;;;;;;27.17;16.67;;;;;;;20.93;67.76;99273.84;5206804;28;20056;-74
2022/06/04 06:35:44;;;;;;;23.73;15.25;;;;;;;20.83;67.86;99270.69;5208509;28;20170;-75
2022/06/04 06:38:34;;;;;;;20.33;13.43;;;;;;;20.62;69.20;99268.97;5221321;28;20052;-76
2022/06/04 06:41:25;;;;;;;23.45;15.23;;;;;;;20.70;69.21;99284.13;5220930;28;20056;-73
2022/06/04 06:44:15;;;;;;;22.90;14.82;;;;;;;20.44;70.46;99285.66;5206866;28;20052;-72
2022/06/04 06:47:07;;;;;;;25.33;15.88;;;;;;;20.42;70.04;99282.31;5223225;28;20059;-73
2022/06/04 06:49:57;;;;;;;25.88;16.38;;;;;;;20.28;71.78;99280.59;5206203;28;20504;-73
2022/06/04 06:52:48;;;;;;;25.27;15.95;;;;;;;20.23;71.35;99283.03;5222157;28;20102;-73
2022/06/04 06:55:38;;;;;;;25.00;16.60;;;;;;;20.21;71.29;99264.41;5200197;28;20506;-73
2022/06/04 06:58:30;;;;;;;23.23;16.77;;;;;;;20.19;70.61;99253.81;5226255;28;20065;-72
2022/06/04 07:01:21;;;;;;;22.77;17.30;;;;;;;20.39;70.92;99248.53;5189846;28;20056;-74
2022/06/04 07:04:12;;;;;;;24.80;17.90;;;;;;;20.16;71.75;99223.78;5205868;28;20057;-73
2022/06/04 07:07:03;;;;;;;26.92;18.85;;;;;;;20.08;71.86;99200.56;5220753;28;20095;-70
2022/06/04 07:09:54;;;;;;;24.20;20.42;;;;;;;20.23;71.08;99188.81;5222608;28;20052;-72
2022/06/04 07:12:45;;;;;;;26.63;20.17;;;;;;;20.42;70.62;99164.63;5208008;28;20094;-72
2022/06/04 07:15:36;;;;;;;38.17;21.08;;;;;;;19.83;72.12;99124.06;5222784;28;20448;-71
2022/06/04 07:18:26;;;;;;;23.83;18.63;;;;;;;20.26;71.48;99165.00;5222763;28;20429;-75
2022/06/04 07:21:16;;;;;;;24.95;21.25;;;;;;;20.28;72.50;99195.25;5208259;28;20060;-70
2022/06/04 07:24:07;;;;;;;28.38;21.60;;;;;;;20.37;71.24;99195.94;5222308;28;20118;-75
2022/06/04 07:26:57;;;;;;;26.83;21.40;;;;;;;20.35;71.37;99197.97;5203044;28;20037;-73
2022/06/04 07:29:47;;;;;;;30.45;21.88;;;;;;;20.85;70.43;99210.16;5203246;28;20060;-73
2022/06/04 07:32:38;;;;;;;30.98;23.85;;;;;;;21.82;69.39;99194.38;5201783;28;20171;-73
2022/06/04 07:35:28;;;;;;;24.45;21.25;;;;;;;23.30;65.22;99215.84;5221101;28;20056;-73
2022/06/04 07:38:18;;;;;;;36.47;23.45;;;;;;;23.92;65.45;99196.97;5222872;28;20056;-75
2022/06/04 07:41:18;;;;;;;22.88;18.98;;;;;;;23.00;64.17;99206.75;5220286;28;20061;-72
2022/06/04 07:44:11;;;;;;;22.10;18.67;;;;;;;22.97;65.12;99200.72;5221087;28;20580;-73
2022/06/04 07:47:01;;;;;;;22.17;17.85;;;;;;;22.88;62.81;99174.97;5221960;28;20041;-73
2022/06/04 07:49:54;;;;;;;23.90;19.15;;;;;;;22.35;65.47;99183.41;5222843;28;20049;-73
2022/06/04 07:52:45;;;;;;;24.77;19.00;;;;;;;22.68;64.32;99180.53;5204397;28;20651;-73
2022/06/04 07:55:39;;;;;;;23.17;18.55;;;;;;;22.18;67.12;99193.03;5207484;28;20275;-76
2022/06/04 07:58:29;;;;;;;23.98;19.88;;;;;;;22.43;65.84;99183.16;5222859;28;20119;-73
2022/06/04 08:01:22;;;;;;;26.50;19.90;;;;;;;22.07;66.59;99174.78;5203063;28;21903;-73
2022/06/04 08:04:13;;;;;;;22.63;19.42;;;;;;;22.65;65.36;99178.25;5207671;28;20056;-74
2022/06/04 08:07:05;;;;;;;22.88;19.23;;;;;;;22.58;65.39;99172.03;5206715;28;20056;-73
2022/06/04 08:09:56;;;;;;;28.73;21.08;;;;;;;22.46;66.28;99162.97;5222672;28;20057;-73
2022/06/04 08:13:00;;;;;;;20.30;17.63;;;;;;;22.15;64.40;99161.00;5207170;28;20052;-73
2022/06/04 08:15:50;;;;;;;22.67;18.98;;;;;;;22.18;66.44;99136.31;5222466;28;20107;-73
2022/06/04 08:18:40;;;;;;;27.80;19.75;;;;;;;22.86;66.00;99179.75;5222778;28;20509;-73
2022/06/04 08:21:32;;;;;;;23.50;19.83;;;;;;;23.30;63.19;99183.41;5207310;28;20096;-73
2022/06/04 08:24:23;;;;;;;21.77;18.70;;;;;;;22.82;64.50;99175.03;5226952;28;20049;-73
2022/06/04 08:27:14;;;;;;;24.45;19.85;;;;;;;23.13;65.28;99187.72;5217160;28;20446;-73
2022/06/04 08:30:05;;;;;;;26.63;19.30;;;;;;;23.47;65.46;99204.47;5226811;28;20059;-73
2022/06/04 08:32:55;;;;;;;24.98;20.55;;;;;;;24.06;64.63;99203.06;5226140;28;20283;-73
2022/06/04 08:35:45;;;;;;;22.70;18.23;;;;;;;24.02;62.18;99207.28;5210949;28;20060;-73
2022/06/04 08:38:36;;;;;;;20.73;18.48;;;;;;;25.09;60.25;99186.63;5226955;28;20132;-73
2022/06/04 08:41:38;;;;;;;28.23;23.67;;;;;;;26.27;60.76;99199.38;5210925;28;20275;-71
2022/06/04 08:44:33;;;;;;;24.33;19.58;;;;;;;26.79;57.82;99204.72;5211447;28;20052;-73
2022/06/04 08:47:32;;;;;;;19.38;15.68;;;;;;;26.98;53.63;99213.50;5211348;28;20096;-70
2022/06/04 08:50:30;;;;;;;20.40;16.98;;;;;;;26.36;57.88;99206.09;5211254;28;20103;-70
2022/06/04 08:53:25;;;;;;;20.63;16.35;;;;;;;25.57;58.31;99209.25;5211613;28;20088;-71
2022/06/04 08:59:45;;;;;;;26.63;17.25;;;;;;;26.21;56.32;99215.56;5219428;28;20511;-71
2022/06/04 09:02:48;;;;;;;19.00;16.95;;;;;;;26.60;58.58;99209.56;5225699;28;20076;-71
2022/06/04 09:06:00;;;;;;;25.10;16.33;;;;;;;27.12;55.39;99226.56;5199109;28;20194;-71
2022/06/04 09:09:03;;;;;;;18.52;14.95;;;;;;;26.59;58.29;99235.09;5226169;28;20525;-71
2022/06/04 09:11:56;;;;;;;22.48;15.80;;;;;;;26.40;55.38;99232.53;5220696;28;20525;-71
2022/06/04 09:14:55;;;;;;;21.63;17.65;;;;;;;25.17;59.48;99236.25;5210539;28;20080;-71
2022/06/04 09:17:50;;;;;;;19.25;15.73;;;;;;;24.94;58.04;99248.66;5219538;28;20053;-71
2022/06/04 09:20:44;;;;;;;20.23;15.40;;;;;;;23.65;62.95;99229.72;5225527;28;20186;-71
2022/06/04 09:23:46;;;;;;;19.48;17.33;;;;;;;24.13;61.05;99230.91;5210565;28;20064;-71
2022/06/04 09:26:49;;;;;;;25.15;19.35;;;;;;;22.71;65.01;99254.91;5210304;28;20045;-71
2022/06/04 09:29:52;;;;;;;21.67;18.77;;;;;;;23.59;63.68;99251.44;5225746;28;20493;-71
2022/06/04 09:33:22;;;;;;;23.42;20.20;;;;;;;22.16;68.12;99262.66;5225130;28;20340;-71
2022/06/04 09:36:16;;;;;;;24.75;21.77;;;;;;;23.19;64.49;99262.56;5188312;28;20052;-71
2022/06/04 09:39:22;;;;;;;28.13;21.77;;;;;;;22.38;67.08;99271.28;5226021;28;20045;-71
2022/06/04 09:42:13;;;;;;;26.25;22.33;;;;;;;23.10;65.11;99275.53;5225000;28;20049;-72
2022/06/04 09:45:05;;;;;;;26.02;22.70;;;;;;;23.03;63.80;99273.91;5225383;28;20151;-73
2022/06/04 09:47:58;;;;;;;28.13;23.13;;;;;;;23.00;65.16;99286.00;5224836;28;20051;-72
2022/06/04 09:50:55;;;;;;;27.92;24.60;;;;;;;23.10;64.75;99264.69;5204667;28;20526;-72
2022/06/04 09:53:49;;;;;;;33.13;25.23;;;;;;;22.37;65.92;99272.34;5200730;28;20056;-72
2022/06/04 09:56:42;;;;;;;30.38;25.67;;;;;;;22.98;65.70;99286.22;5224888;28;20473;-72
2022/06/04 09:59:34;;;;;;;32.13;26.20;;;;;;;21.86;67.64;99286.56;5224617;28;20053;-72
2022/06/04 10:02:25;;;;;;;30.67;26.67;;;;;;;22.07;67.53;99285.47;5224339;28;20132;-72
2022/06/04 10:05:20;;;;;;;32.95;27.05;;;;;;;21.60;68.28;99279.31;5220769;28;20053;-72
2022/06/04 10:08:12;;;;;;;31.95;26.55;;;;;;;22.69;65.24;99293.00;5225235;28;20118;-72
2022/06/04 10:11:05;;;;;;;38.20;27.10;;;;;;;22.96;65.65;99311.81;5224435;28;20224;-72
2022/06/04 10:13:56;;;;;;;31.75;27.30;;;;;;;23.18;64.16;99323.97;5224719;28;20056;-72
2022/06/04 10:16:47;;;;;;;33.10;26.75;;;;;;;22.71;65.43;99322.50;5223495;28;20527;-72
2022/06/04 10:19:37;;;;;;;29.83;26.63;;;;;;;22.83;64.89;99314.56;5225165;28;20142;-72
2022/06/04 10:22:27;;;;;;;34.55;27.67;;;;;;;22.77;66.40;99327.03;5224263;28;20122;-73
2022/06/04 10:25:21;;;;;;;30.25;24.60;;;;;;;23.10;65.02;99323.38;5224299;28;20056;-72
2022/06/04 10:28:23;;;;;;;28.50;24.05;;;;;;;23.16;63.34;99326.03;5224467;28;20056;-72
2022/06/04 10:31:39;;;;;;;28.73;22.58;;;;;;;22.92;64.38;99327.59;5223838;28;20057;-72
2022/06/04 10:34:52;;;;;;;31.42;21.83;;;;;;;21.94;67.24;99332.22;5224320;28;20095;-72
2022/06/04 10:38:09;;;;;;;30.08;22.95;;;;;;;22.31;66.63;99328.03;5224282;28;20451;-72
2022/06/04 10:41:12;;;;;;;27.23;21.50;;;;;;;22.28;66.16;99332.00;5198880;28;20198;-71
2022/06/04 10:44:36;;;;;;;31.52;22.80;;;;;;;22.21;66.58;99341.16;5209068;28;20060;-72
2022/06/04 10:47:39;;;;;;;24.17;19.92;;;;;;;22.93;64.30;99328.47;5224098;28;20080;-73
2022/06/04 10:54:04;;;;;;;22.23;18.63;;;;;;;22.19;66.26;99319.78;5223683;28;20161;-72
2022/06/04 10:57:11;;;;;;;23.75;19.60;;;;;;;22.29;66.14;99322.03;5208896;28;20060;-72
2022/06/04 11:00:03;;;;;;;23.02;18.55;;;;;;;22.39;66.77;99332.41;5208448;28;20060;-72
2022/06/04 11:03:11;;;;;;;25.30;18.60;;;;;;;22.11;65.54;99330.75;5223294;28;20138;-73
2022/06/04 11:06:16;;;;;;;21.42;17.17;;;;;;;22.52;65.90;99318.84;5223662;28;20052;-72
2022/06/04 11:09:33;;;;;;;20.15;17.95;;;;;;;22.89;64.20;99325.34;5223661;28;20533;-72
2022/06/04 11:12:52;;;;;;;22.25;19.45;;;;;;;23.19;63.90;99341.03;5223579;28;20190;-72
2022/06/04 11:16:03;;;;;;;22.58;18.13;;;;;;;23.21;62.52;99333.50;5223730;28;20135;-72
2022/06/04 11:19:04;;;;;;;23.88;18.75;;;;;;;23.80;61.57;99340.38;5208448;28;20593;-72
2022/06/04 11:22:04;;;;;;;24.35;18.27;;;;;;;22.46;64.97;99338.59;5219235;28;20553;-72
2022/06/04 11:25:24;;;;;;;25.73;21.15;;;;;;;23.10;64.97;99334.19;5223582;28;20049;-72
2022/06/04 11:28:23;;;;;;;26.23;21.65;;;;;;;23.47;63.46;99326.25;5194142;28;20040;-72
2022/06/04 11:31:55;;;;;;;25.08;18.63;;;;;;;23.47;62.57;99300.03;5207499;28;20085;-72
2022/06/04 11:35:10;;;;;;;23.52;17.23;;;;;;;24.06;62.22;99325.78;5188797;28;20498;-72
2022/06/04 11:38:12;;;;;;;24.73;20.73;;;;;;;24.52;62.05;99327.19;5207715;28;20048;-72
2022/06/04 11:41:36;;;;;;;23.92;19.33;;;;;;;23.81;60.30;99325.81;5223093;28;20053;-72
2022/06/04 11:44:32;;;;;;;24.23;17.33;;;;;;;23.99;61.33;99316.91;5210061;28;20056;-72
2022/06/04 11:47:28;;;;;;;26.48;21.15;;;;;;;24.56;59.48;99325.69;5207807;28;20052;-71
2022/06/04 11:50:39;;;;;;;29.45;23.55;;;;;;;24.41;59.68;99329.84;5209997;28;20051;-72
2022/06/04 11:53:45;;;;;;;29.25;22.60;;;;;;;24.50;60.43;99326.63;5222684;28;20057;-72
2022/06/04 11:56:48;;;;;;;28.05;22.05;;;;;;;24.70;58.64;99329.09;5207937;28;20095;-72
2022/06/04 11:59:51;;;;;;;26.52;21.38;;;;;;;25.05;58.74;99320.28;5222707;28;20059;-72
2022/06/04 12:02:51;;;;;;;29.35;23.50;;;;;;;25.09;57.01;99322.28;5207480;28;20082;-72
2022/06/04 12:06:07;;;;;;;26.83;22.20;;;;;;;25.39;57.33;99316.03;5207020;28;20423;-72
2022/06/04 12:09:08;;;;;;;27.05;20.17;;;;;;;25.29;57.49;99315.78;5222903;28;20072;-72
2022/06/04 12:12:03;;;;;;;23.17;19.60;;;;;;;25.10;57.88;99304.16;5222105;28;20045;-72
2022/06/04 12:15:01;;;;;;;23.88;20.27;;;;;;;25.88;57.25;99288.75;5222560;28;20167;-72
2022/06/04 12:17:56;;;;;;;27.40;19.48;;;;;;;26.36;57.23;99293.09;5222379;28;20495;-72
2022/06/04 12:24:18;;;;;;;22.17;18.92;;;;;;;26.34;56.28;99285.16;5222398;28;19924;-72
2022/06/04 12:27:24;;;;;;;21.00;18.20;;;;;;;26.69;55.62;99292.44;5222269;28;20151;-72
2022/06/04 12:30:17;;;;;;;25.20;18.10;;;;;;;26.03;55.80;99297.25;5213310;28;20124;-72
2022/06/04 12:33:23;;;;;;;19.55;15.93;;;;;;;24.34;59.72;99272.97;5207094;28;20057;-72
2022/06/04 12:36:24;;;;;;;16.88;14.32;;;;;;;26.06;57.48;99293.22;5192239;28;20376;-72
2022/06/04 12:39:22;;;;;;;20.25;16.13;;;;;;;26.46;55.92;99296.84;5193291;28;20146;-72
2022/06/04 12:42:21;;;;;;;17.35;15.43;;;;;;;26.75;55.72;99296.06;5206792;28;20071;-72
2022/06/04 12:45:32;;;;;;;14.93;13.18;;;;;;;26.93;54.02;99283.09;5221756;28;20147;-72
2022/06/04 12:48:32;;;;;;;15.60;14.02;;;;;;;26.52;54.15;99286.91;5221757;28;20107;-72
2022/06/04 12:51:34;;;;;;;19.08;15.93;;;;;;;26.20;54.88;99289.22;5221622;28;20102;-72
2022/06/04 12:54:34;;;;;;;18.27;13.80;;;;;;;26.74;53.90;99291.69;5208731;28;20049;-72
2022/06/04 12:57:41;;;;;;;15.75;13.35;;;;;;;26.53;52.60;99293.19;5207221;28;20056;-72
2022/06/04 13:00:36;;;;;;;14.80;13.18;;;;;;;26.96;53.24;99286.41;5207444;28;20494;-72
2022/06/04 13:04:18;;;;;;;14.38;10.93;;;;;;;26.87;52.42;99294.13;5216548;28;20103;-72
2022/06/04 13:07:25;;;;;;;12.93;8.52;;;;;;;26.98;51.08;99287.81;5194602;28;20100;-72
2022/06/04 13:10:25;;;;;;;13.50;10.43;;;;;;;25.67;53.39;99285.53;5209944;28;20060;-72
2022/06/04 13:13:53;;;;;;;16.23;10.23;;;;;;;26.48;52.04;99292.00;5225862;28;20477;-72
2022/06/04 13:16:55;;;;;;;12.32;8.45;;;;;;;26.52;53.82;99278.75;5225566;28;20529;-72
2022/06/04 13:19:57;;;;;;;13.32;11.07;;;;;;;26.63;52.26;99293.41;5210831;28;20045;-72
2022/06/04 13:22:52;;;;;;;13.75;10.77;;;;;;;26.69;51.65;99284.28;5225650;28;20060;-72
2022/06/04 13:25:54;;;;;;;12.27;10.30;;;;;;;26.75;51.06;99282.47;5225300;28;20131;-72
2022/06/04 13:28:49;;;;;;;12.77;10.25;;;;;;;26.67;53.57;99278.25;5225790;28;20057;-72
2022/06/04 13:31:39;;;;;;;11.70;9.57;;;;;;;26.84;53.01;99278.28;5210337;28;20048;-72
2022/06/04 13:34:35;;;;;;;14.48;10.18;;;;;;;25.80;55.44;99275.50;5196447;28;20060;-72
2022/06/04 13:37:32;;;;;;;12.13;9.43;;;;;;;25.43;54.95;99278.41;5225374;28;20048;-72
2022/06/04 13:40:28;;;;;;;10.00;9.00;;;;;;;25.80;54.19;99279.06;5209740;28;20064;-72
2022/06/04 13:43:18;;;;;;;9.18;8.20;;;;;;;26.14;53.74;99274.66;5225166;28;20423;-72
2022/06/04 13:46:27;;;;;;;14.15;10.15;;;;;;;26.25;52.12;99260.22;5224661;28;20063;-72
2022/06/04 13:49:25;;;;;;;12.18;10.65;;;;;;;26.41;54.75;99276.88;5209880;28;20560;-72